Summerland, California
Current Conditions -  °F | °C
As of 7:53 PM on Saturday 24 Jan 2015 (Local Time) from KSBA Reporting Station
Clear Clear  
Wind Chill: 54°   Ceiling: Unl
Heat Index: 54°   Visibility: 10mi
Dew Point: 42°   Wind: 0mph
Humidity: 64%   Direction: NA
Pressure: 30.03"   Gusts: NA
Location:  34.42°N, 119.6°W
Report Text: KSBA 250353Z 00000KT 10SM CLR 12/06 A3003 RMK AO2 SLP168 T01220056
Loading
Personal Weather Stations






























Interactive Weather Map New forecast layout! Learn more

10-Day Weather Forecast

Advertisements
Track Severe Weather on mobile